sensor_id;sensor_type;location;lat;lon;timestamp;P1;durP1;ratioP1;P2;durP2;ratioP2
24713;SDS011;12820;51.580;5.010;2023-07-30T00:00:35;15.65;;;4.32;;
24713;SDS011;12820;51.580;5.010;2023-07-30T00:05:37;7.75;;;3.60;;
24713;SDS011;12820;51.580;5.010;2023-07-30T00:10:39;13.20;;;3.72;;
24713;SDS011;12820;51.580;5.010;2023-07-30T00:15:41;11.27;;;3.75;;
24713;SDS011;12820;51.580;5.010;2023-07-30T00:20:44;11.10;;;3.90;;
24713;SDS011;12820;51.580;5.010;2023-07-30T00:25:46;15.95;;;4.43;;
24713;SDS011;12820;51.580;5.010;2023-07-30T00:30:48;14.23;;;3.78;;
24713;SDS011;12820;51.580;5.010;2023-07-30T00:35:51;13.73;;;3.97;;
24713;SDS011;12820;51.580;5.010;2023-07-30T00:40:54;13.27;;;4.07;;
24713;SDS011;12820;51.580;5.010;2023-07-30T00:45:57;11.27;;;3.88;;
24713;SDS011;12820;51.580;5.010;2023-07-30T00:50:59;12.32;;;3.83;;
24713;SDS011;12820;51.580;5.010;2023-07-30T00:56:02;9.82;;;3.55;;
24713;SDS011;12820;51.580;5.010;2023-07-30T01:01:04;15.27;;;4.05;;
24713;SDS011;12820;51.580;5.010;2023-07-30T01:06:07;15.15;;;5.05;;
24713;SDS011;12820;51.580;5.010;2023-07-30T01:11:09;18.63;;;4.38;;
24713;SDS011;12820;51.580;5.010;2023-07-30T01:16:12;13.50;;;4.10;;
24713;SDS011;12820;51.580;5.010;2023-07-30T01:21:14;14.00;;;4.07;;
24713;SDS011;12820;51.580;5.010;2023-07-30T01:26:19;13.15;;;3.72;;
24713;SDS011;12820;51.580;5.010;2023-07-30T01:31:26;11.73;;;3.95;;
24713;SDS011;12820;51.580;5.010;2023-07-30T01:36:32;11.75;;;4.22;;
24713;SDS011;12820;51.580;5.010;2023-07-30T01:41:35;9.00;;;4.15;;
24713;SDS011;12820;51.580;5.010;2023-07-30T01:46:38;18.33;;;4.82;;
24713;SDS011;12820;51.580;5.010;2023-07-30T01:51:40;22.67;;;5.20;;
24713;SDS011;12820;51.580;5.010;2023-07-30T01:56:42;12.43;;;4.65;;
24713;SDS011;12820;51.580;5.010;2023-07-30T02:01:45;21.70;;;4.63;;
24713;SDS011;12820;51.580;5.010;2023-07-30T02:06:47;19.88;;;4.80;;
24713;SDS011;12820;51.580;5.010;2023-07-30T02:11:50;17.25;;;4.35;;
24713;SDS011;12820;51.580;5.010;2023-07-30T02:16:52;22.80;;;6.05;;
24713;SDS011;12820;51.580;5.010;2023-07-30T02:21:55;25.30;;;5.80;;
24713;SDS011;12820;51.580;5.010;2023-07-30T02:26:57;19.63;;;5.43;;
24713;SDS011;12820;51.580;5.010;2023-07-30T02:31:59;21.85;;;5.55;;
24713;SDS011;12820;51.580;5.010;2023-07-30T02:37:02;22.83;;;6.13;;
24713;SDS011;12820;51.580;5.010;2023-07-30T02:42:04;27.02;;;6.97;;
24713;SDS011;12820;51.580;5.010;2023-07-30T02:47:07;26.08;;;6.82;;
24713;SDS011;12820;51.580;5.010;2023-07-30T02:52:09;25.55;;;6.78;;
24713;SDS011;12820;51.580;5.010;2023-07-30T02:57:11;25.65;;;7.00;;
24713;SDS011;12820;51.580;5.010;2023-07-30T03:02:14;23.77;;;7.10;;
24713;SDS011;12820;51.580;5.010;2023-07-30T03:07:17;28.63;;;7.95;;
24713;SDS011;12820;51.580;5.010;2023-07-30T03:12:20;25.98;;;7.47;;
24713;SDS011;12820;51.580;5.010;2023-07-30T03:17:22;22.38;;;8.10;;
24713;SDS011;12820;51.580;5.010;2023-07-30T03:22:24;26.20;;;7.80;;
24713;SDS011;12820;51.580;5.010;2023-07-30T03:27:27;21.08;;;7.00;;
24713;SDS011;12820;51.580;5.010;2023-07-30T03:32:29;24.63;;;7.68;;
24713;SDS011;12820;51.580;5.010;2023-07-30T03:37:31;37.75;;;9.15;;
24713;SDS011;12820;51.580;5.010;2023-07-30T03:42:33;28.27;;;8.98;;
24713;SDS011;12820;51.580;5.010;2023-07-30T03:47:35;30.42;;;9.50;;
24713;SDS011;12820;51.580;5.010;2023-07-30T03:52:37;29.50;;;9.70;;
24713;SDS011;12820;51.580;5.010;2023-07-30T03:57:40;23.08;;;8.05;;
24713;SDS011;12820;51.580;5.010;2023-07-30T04:02:42;25.25;;;8.00;;
24713;SDS011;12820;51.580;5.010;2023-07-30T04:07:44;26.15;;;7.22;;
24713;SDS011;12820;51.580;5.010;2023-07-30T04:12:46;25.95;;;7.75;;
24713;SDS011;12820;51.580;5.010;2023-07-30T04:17:48;25.40;;;7.70;;
24713;SDS011;12820;51.580;5.010;2023-07-30T04:22:51;34.88;;;9.65;;
24713;SDS011;12820;51.580;5.010;2023-07-30T04:27:53;24.77;;;9.27;;
24713;SDS011;12820;51.580;5.010;2023-07-30T04:32:56;25.75;;;8.85;;
24713;SDS011;12820;51.580;5.010;2023-07-30T04:37:58;24.08;;;7.65;;
24713;SDS011;12820;51.580;5.010;2023-07-30T04:43:01;29.50;;;8.35;;
24713;SDS011;12820;51.580;5.010;2023-07-30T04:48:05;27.15;;;7.90;;
24713;SDS011;12820;51.580;5.010;2023-07-30T04:53:07;26.02;;;8.60;;
24713;SDS011;12820;51.580;5.010;2023-07-30T04:58:10;23.23;;;7.85;;
24713;SDS011;12820;51.580;5.010;2023-07-30T05:03:12;30.45;;;8.60;;
24713;SDS011;12820;51.580;5.010;2023-07-30T05:08:15;26.70;;;8.40;;
24713;SDS011;12820;51.580;5.010;2023-07-30T05:13:17;32.95;;;9.90;;
24713;SDS011;12820;51.580;5.010;2023-07-30T05:18:19;25.05;;;10.48;;
24713;SDS011;12820;51.580;5.010;2023-07-30T05:23:21;28.05;;;10.63;;
24713;SDS011;12820;51.580;5.010;2023-07-30T05:28:23;33.72;;;12.60;;
24713;SDS011;12820;51.580;5.010;2023-07-30T05:33:26;41.00;;;12.82;;
24713;SDS011;12820;51.580;5.010;2023-07-30T05:38:28;29.40;;;12.95;;
24713;SDS011;12820;51.580;5.010;2023-07-30T05:43:30;31.05;;;12.43;;
24713;SDS011;12820;51.580;5.010;2023-07-30T05:48:32;31.25;;;12.55;;
24713;SDS011;12820;51.580;5.010;2023-07-30T05:53:34;27.00;;;11.57;;
24713;SDS011;12820;51.580;5.010;2023-07-30T05:58:37;27.83;;;11.23;;
24713;SDS011;12820;51.580;5.010;2023-07-30T06:03:39;32.65;;;11.02;;
24713;SDS011;12820;51.580;5.010;2023-07-30T06:08:41;28.95;;;10.02;;
24713;SDS011;12820;51.580;5.010;2023-07-30T06:13:43;33.95;;;9.52;;
24713;SDS011;12820;51.580;5.010;2023-07-30T06:18:46;29.25;;;8.52;;
24713;SDS011;12820;51.580;5.010;2023-07-30T06:23:48;28.38;;;8.15;;
24713;SDS011;12820;51.580;5.010;2023-07-30T06:28:51;29.15;;;7.50;;
24713;SDS011;12820;51.580;5.010;2023-07-30T06:33:53;25.50;;;6.65;;
24713;SDS011;12820;51.580;5.010;2023-07-30T06:38:55;25.55;;;6.60;;
24713;SDS011;12820;51.580;5.010;2023-07-30T06:43:57;26.27;;;6.07;;
24713;SDS011;12820;51.580;5.010;2023-07-30T06:49:00;29.55;;;6.25;;
24713;SDS011;12820;51.580;5.010;2023-07-30T06:54:02;22.15;;;6.28;;
24713;SDS011;12820;51.580;5.010;2023-07-30T06:59:04;24.05;;;5.15;;
24713;SDS011;12820;51.580;5.010;2023-07-30T07:04:06;26.10;;;5.75;;
24713;SDS011;12820;51.580;5.010;2023-07-30T07:09:08;24.67;;;5.88;;
24713;SDS011;12820;51.580;5.010;2023-07-30T07:14:10;24.73;;;5.22;;
24713;SDS011;12820;51.580;5.010;2023-07-30T07:19:12;25.00;;;4.53;;
24713;SDS011;12820;51.580;5.010;2023-07-30T07:24:15;24.77;;;5.18;;
24713;SDS011;12820;51.580;5.010;2023-07-30T07:29:18;19.40;;;5.05;;
24713;SDS011;12820;51.580;5.010;2023-07-30T07:34:20;22.95;;;4.53;;
24713;SDS011;12820;51.580;5.010;2023-07-30T07:39:23;22.45;;;4.68;;
24713;SDS011;12820;51.580;5.010;2023-07-30T07:44:25;21.95;;;4.25;;
24713;SDS011;12820;51.580;5.010;2023-07-30T07:49:27;23.35;;;5.05;;
24713;SDS011;12820;51.580;5.010;2023-07-30T07:54:30;27.33;;;4.30;;
24713;SDS011;12820;51.580;5.010;2023-07-30T07:59:32;24.45;;;6.13;;
24713;SDS011;12820;51.580;5.010;2023-07-30T08:04:34;20.10;;;4.40;;
24713;SDS011;12820;51.580;5.010;2023-07-30T08:09:37;24.10;;;5.10;;
24713;SDS011;12820;51.580;5.010;2023-07-30T08:14:39;22.33;;;5.53;;
24713;SDS011;12820;51.580;5.010;2023-07-30T08:19:42;28.67;;;5.40;;
24713;SDS011;12820;51.580;5.010;2023-07-30T08:24:44;25.75;;;5.93;;
24713;SDS011;12820;51.580;5.010;2023-07-30T08:29:46;19.48;;;4.72;;
24713;SDS011;12820;51.580;5.010;2023-07-30T08:34:48;18.98;;;4.55;;
24713;SDS011;12820;51.580;5.010;2023-07-30T08:39:51;26.17;;;4.95;;
24713;SDS011;12820;51.580;5.010;2023-07-30T08:44:54;21.23;;;3.70;;
24713;SDS011;12820;51.580;5.010;2023-07-30T08:49:56;19.58;;;4.60;;
24713;SDS011;12820;51.580;5.010;2023-07-30T08:54:59;18.48;;;4.70;;
24713;SDS011;12820;51.580;5.010;2023-07-30T09:00:03;20.02;;;4.22;;
24713;SDS011;12820;51.580;5.010;2023-07-30T09:05:10;19.20;;;4.13;;
24713;SDS011;12820;51.580;5.010;2023-07-30T09:10:13;22.30;;;4.88;;
24713;SDS011;12820;51.580;5.010;2023-07-30T09:15:16;20.27;;;3.63;;
24713;SDS011;12820;51.580;5.010;2023-07-30T09:20:18;17.05;;;3.78;;
24713;SDS011;12820;51.580;5.010;2023-07-30T09:25:20;14.70;;;3.40;;
24713;SDS011;12820;51.580;5.010;2023-07-30T09:30:23;11.13;;;3.10;;
24713;SDS011;12820;51.580;5.010;2023-07-30T09:35:26;16.42;;;3.67;;
24713;SDS011;12820;51.580;5.010;2023-07-30T09:40:35;10.48;;;2.97;;
24713;SDS011;12820;51.580;5.010;2023-07-30T09:45:38;14.15;;;3.17;;
24713;SDS011;12820;51.580;5.010;2023-07-30T09:50:40;14.63;;;3.38;;
24713;SDS011;12820;51.580;5.010;2023-07-30T09:55:43;15.02;;;2.55;;
24713;SDS011;12820;51.580;5.010;2023-07-30T10:00:45;12.52;;;2.63;;
24713;SDS011;12820;51.580;5.010;2023-07-30T10:05:50;15.80;;;3.30;;
24713;SDS011;12820;51.580;5.010;2023-07-30T10:10:55;15.55;;;3.03;;
24713;SDS011;12820;51.580;5.010;2023-07-30T10:15:59;17.63;;;3.58;;
24713;SDS011;12820;51.580;5.010;2023-07-30T10:21:01;16.02;;;3.15;;
24713;SDS011;12820;51.580;5.010;2023-07-30T10:26:10;19.02;;;3.50;;
24713;SDS011;12820;51.580;5.010;2023-07-30T10:31:13;19.20;;;4.03;;
24713;SDS011;12820;51.580;5.010;2023-07-30T10:36:18;16.00;;;3.83;;
24713;SDS011;12820;51.580;5.010;2023-07-30T10:41:28;12.35;;;3.40;;
24713;SDS011;12820;51.580;5.010;2023-07-30T10:46:30;10.98;;;2.78;;
24713;SDS011;12820;51.580;5.010;2023-07-30T10:51:33;10.63;;;2.15;;
24713;SDS011;12820;51.580;5.010;2023-07-30T10:56:37;9.10;;;1.85;;
24713;SDS011;12820;51.580;5.010;2023-07-30T11:01:41;9.80;;;1.83;;
24713;SDS011;12820;51.580;5.010;2023-07-30T11:06:49;10.93;;;2.05;;
24713;SDS011;12820;51.580;5.010;2023-07-30T11:11:53;9.82;;;1.77;;
24713;SDS011;12820;51.580;5.010;2023-07-30T11:16:58;10.90;;;1.80;;
24713;SDS011;12820;51.580;5.010;2023-07-30T11:22:02;9.18;;;2.00;;
24713;SDS011;12820;51.580;5.010;2023-07-30T11:27:05;6.97;;;1.35;;
24713;SDS011;12820;51.580;5.010;2023-07-30T11:32:07;4.93;;;1.30;;
24713;SDS011;12820;51.580;5.010;2023-07-30T11:37:10;11.88;;;1.52;;
24713;SDS011;12820;51.580;5.010;2023-07-30T11:42:12;7.40;;;1.40;;
24713;SDS011;12820;51.580;5.010;2023-07-30T11:47:20;7.32;;;1.80;;
24713;SDS011;12820;51.580;5.010;2023-07-30T11:52:24;7.63;;;1.67;;
24713;SDS011;12820;51.580;5.010;2023-07-30T11:57:34;9.13;;;1.33;;
24713;SDS011;12820;51.580;5.010;2023-07-30T12:02:37;9.97;;;1.90;;
24713;SDS011;12820;51.580;5.010;2023-07-30T12:07:40;11.73;;;1.33;;
24713;SDS011;12820;51.580;5.010;2023-07-30T12:12:45;9.52;;;1.33;;
24713;SDS011;12820;51.580;5.010;2023-07-30T12:17:48;7.22;;;1.30;;
24713;SDS011;12820;51.580;5.010;2023-07-30T12:22:50;6.70;;;1.17;;
24713;SDS011;12820;51.580;5.010;2023-07-30T12:27:52;4.72;;;1.00;;
24713;SDS011;12820;51.580;5.010;2023-07-30T12:32:54;6.57;;;1.27;;
24713;SDS011;12820;51.580;5.010;2023-07-30T12:37:57;6.28;;;1.15;;
24713;SDS011;12820;51.580;5.010;2023-07-30T12:43:00;5.65;;;0.88;;
24713;SDS011;12820;51.580;5.010;2023-07-30T12:48:03;6.65;;;0.75;;
24713;SDS011;12820;51.580;5.010;2023-07-30T12:53:06;5.07;;;0.70;;
24713;SDS011;12820;51.580;5.010;2023-07-30T12:58:08;4.85;;;0.95;;
24713;SDS011;12820;51.580;5.010;2023-07-30T13:03:11;5.15;;;0.82;;
24713;SDS011;12820;51.580;5.010;2023-07-30T13:08:13;3.55;;;0.73;;
24713;SDS011;12820;51.580;5.010;2023-07-30T13:13:15;5.07;;;0.90;;
24713;SDS011;12820;51.580;5.010;2023-07-30T13:18:17;7.97;;;0.93;;
24713;SDS011;12820;51.580;5.010;2023-07-30T13:23:20;9.30;;;1.10;;
24713;SDS011;12820;51.580;5.010;2023-07-30T13:28:22;4.70;;;0.73;;
24713;SDS011;12820;51.580;5.010;2023-07-30T13:33:24;10.07;;;1.38;;
24713;SDS011;12820;51.580;5.010;2023-07-30T13:38:27;5.38;;;0.90;;
24713;SDS011;12820;51.580;5.010;2023-07-30T13:43:29;4.43;;;0.90;;
24713;SDS011;12820;51.580;5.010;2023-07-30T13:48:31;9.27;;;1.35;;
24713;SDS011;12820;51.580;5.010;2023-07-30T13:53:34;9.50;;;1.25;;
24713;SDS011;12820;51.580;5.010;2023-07-30T13:58:40;10.93;;;1.67;;
24713;SDS011;12820;51.580;5.010;2023-07-30T14:03:43;7.32;;;2.30;;
24713;SDS011;12820;51.580;5.010;2023-07-30T14:08:45;11.35;;;1.60;;
24713;SDS011;12820;51.580;5.010;2023-07-30T14:13:48;8.52;;;1.70;;
24713;SDS011;12820;51.580;5.010;2023-07-30T14:18:50;7.43;;;1.52;;
24713;SDS011;12820;51.580;5.010;2023-07-30T14:23:52;9.68;;;1.45;;
24713;SDS011;12820;51.580;5.010;2023-07-30T14:28:54;7.15;;;1.42;;
24713;SDS011;12820;51.580;5.010;2023-07-30T14:33:57;11.75;;;1.75;;
24713;SDS011;12820;51.580;5.010;2023-07-30T14:38:59;5.45;;;1.38;;
24713;SDS011;12820;51.580;5.010;2023-07-30T14:44:02;9.07;;;1.40;;
24713;SDS011;12820;51.580;5.010;2023-07-30T14:49:05;6.10;;;1.20;;
24713;SDS011;12820;51.580;5.010;2023-07-30T14:54:07;7.00;;;1.70;;
24713;SDS011;12820;51.580;5.010;2023-07-30T14:59:10;6.10;;;1.40;;
24713;SDS011;12820;51.580;5.010;2023-07-30T15:04:12;9.15;;;1.70;;
24713;SDS011;12820;51.580;5.010;2023-07-30T15:09:15;9.25;;;1.70;;
24713;SDS011;12820;51.580;5.010;2023-07-30T15:14:17;9.73;;;1.77;;
24713;SDS011;12820;51.580;5.010;2023-07-30T15:19:19;8.07;;;1.98;;
24713;SDS011;12820;51.580;5.010;2023-07-30T15:24:21;12.73;;;2.60;;
24713;SDS011;12820;51.580;5.010;2023-07-30T15:29:23;9.75;;;1.50;;
24713;SDS011;12820;51.580;5.010;2023-07-30T15:34:26;7.25;;;1.77;;
24713;SDS011;12820;51.580;5.010;2023-07-30T15:39:28;7.28;;;1.45;;
24713;SDS011;12820;51.580;5.010;2023-07-30T15:44:30;9.70;;;1.77;;
24713;SDS011;12820;51.580;5.010;2023-07-30T15:49:33;10.90;;;2.33;;
24713;SDS011;12820;51.580;5.010;2023-07-30T15:54:37;9.60;;;2.53;;
24713;SDS011;12820;51.580;5.010;2023-07-30T15:59:43;11.05;;;2.63;;
24713;SDS011;12820;51.580;5.010;2023-07-30T16:04:47;10.45;;;2.13;;
24713;SDS011;12820;51.580;5.010;2023-07-30T16:09:50;12.10;;;2.63;;
24713;SDS011;12820;51.580;5.010;2023-07-30T16:14:52;9.02;;;2.17;;
24713;SDS011;12820;51.580;5.010;2023-07-30T16:19:55;11.48;;;2.22;;
24713;SDS011;12820;51.580;5.010;2023-07-30T16:24:58;10.95;;;2.95;;
24713;SDS011;12820;51.580;5.010;2023-07-30T16:30:01;12.20;;;3.67;;
24713;SDS011;12820;51.580;5.010;2023-07-30T16:35:03;12.30;;;2.47;;
24713;SDS011;12820;51.580;5.010;2023-07-30T16:40:07;11.07;;;2.80;;
24713;SDS011;12820;51.580;5.010;2023-07-30T16:45:10;8.98;;;1.90;;
24713;SDS011;12820;51.580;5.010;2023-07-30T16:50:12;8.20;;;2.17;;
24713;SDS011;12820;51.580;5.010;2023-07-30T16:55:15;6.75;;;1.88;;
24713;SDS011;12820;51.580;5.010;2023-07-30T17:00:17;10.13;;;2.40;;
24713;SDS011;12820;51.580;5.010;2023-07-30T17:05:19;9.43;;;2.60;;
24713;SDS011;12820;51.580;5.010;2023-07-30T17:10:22;11.05;;;2.42;;
24713;SDS011;12820;51.580;5.010;2023-07-30T17:15:24;8.02;;;2.13;;
24713;SDS011;12820;51.580;5.010;2023-07-30T17:20:26;7.38;;;2.28;;
24713;SDS011;12820;51.580;5.010;2023-07-30T17:25:29;8.63;;;2.45;;
24713;SDS011;12820;51.580;5.010;2023-07-30T17:30:34;8.48;;;2.20;;
24713;SDS011;12820;51.580;5.010;2023-07-30T17:35:38;13.50;;;3.13;;
24713;SDS011;12820;51.580;5.010;2023-07-30T17:40:48;9.65;;;2.55;;
24713;SDS011;12820;51.580;5.010;2023-07-30T17:45:51;9.75;;;2.50;;
24713;SDS011;12820;51.580;5.010;2023-07-30T17:50:54;10.07;;;2.80;;
24713;SDS011;12820;51.580;5.010;2023-07-30T17:55:56;10.82;;;2.72;;
24713;SDS011;12820;51.580;5.010;2023-07-30T18:01:01;7.40;;;2.20;;
24713;SDS011;12820;51.580;5.010;2023-07-30T18:06:07;9.15;;;2.60;;
24713;SDS011;12820;51.580;5.010;2023-07-30T18:11:10;9.80;;;3.17;;
24713;SDS011;12820;51.580;5.010;2023-07-30T18:16:12;10.20;;;2.95;;
24713;SDS011;12820;51.580;5.010;2023-07-30T18:21:15;11.30;;;3.83;;
24713;SDS011;12820;51.580;5.010;2023-07-30T18:26:17;12.23;;;3.00;;
24713;SDS011;12820;51.580;5.010;2023-07-30T18:31:19;8.63;;;2.60;;
24713;SDS011;12820;51.580;5.010;2023-07-30T18:36:21;8.45;;;3.10;;
24713;SDS011;12820;51.580;5.010;2023-07-30T18:41:24;7.57;;;2.55;;
24713;SDS011;12820;51.580;5.010;2023-07-30T18:46:27;5.88;;;2.33;;
24713;SDS011;12820;51.580;5.010;2023-07-30T18:51:29;5.50;;;2.20;;
24713;SDS011;12820;51.580;5.010;2023-07-30T18:56:31;7.10;;;1.95;;
24713;SDS011;12820;51.580;5.010;2023-07-30T19:01:34;6.90;;;1.95;;
24713;SDS011;12820;51.580;5.010;2023-07-30T19:06:37;4.32;;;1.50;;
24713;SDS011;12820;51.580;5.010;2023-07-30T19:11:39;6.07;;;1.40;;
24713;SDS011;12820;51.580;5.010;2023-07-30T19:16:43;5.40;;;1.70;;
24713;SDS011;12820;51.580;5.010;2023-07-30T19:21:45;4.90;;;1.83;;
24713;SDS011;12820;51.580;5.010;2023-07-30T19:26:51;3.83;;;1.38;;
24713;SDS011;12820;51.580;5.010;2023-07-30T19:31:53;6.13;;;1.80;;
24713;SDS011;12820;51.580;5.010;2023-07-30T19:36:55;4.10;;;1.52;;
24713;SDS011;12820;51.580;5.010;2023-07-30T19:41:58;4.68;;;1.42;;
24713;SDS011;12820;51.580;5.010;2023-07-30T19:47:00;4.25;;;1.50;;
24713;SDS011;12820;51.580;5.010;2023-07-30T19:52:02;4.00;;;1.45;;
24713;SDS011;12820;51.580;5.010;2023-07-30T19:57:05;3.78;;;1.45;;
24713;SDS011;12820;51.580;5.010;2023-07-30T20:02:07;3.85;;;1.60;;
24713;SDS011;12820;51.580;5.010;2023-07-30T20:07:09;5.30;;;1.50;;
24713;SDS011;12820;51.580;5.010;2023-07-30T20:12:11;5.55;;;1.63;;
24713;SDS011;12820;51.580;5.010;2023-07-30T20:17:14;5.88;;;1.50;;
24713;SDS011;12820;51.580;5.010;2023-07-30T20:22:17;8.23;;;1.50;;
24713;SDS011;12820;51.580;5.010;2023-07-30T20:27:20;4.75;;;1.45;;
24713;SDS011;12820;51.580;5.010;2023-07-30T20:32:22;5.95;;;1.85;;
24713;SDS011;12820;51.580;5.010;2023-07-30T20:37:25;3.10;;;1.25;;
24713;SDS011;12820;51.580;5.010;2023-07-30T20:42:28;3.60;;;1.20;;
24713;SDS011;12820;51.580;5.010;2023-07-30T20:47:30;5.10;;;1.42;;
24713;SDS011;12820;51.580;5.010;2023-07-30T20:52:32;4.05;;;1.38;;
24713;SDS011;12820;51.580;5.010;2023-07-30T20:57:34;5.18;;;1.63;;
24713;SDS011;12820;51.580;5.010;2023-07-30T21:02:37;4.90;;;1.83;;
24713;SDS011;12820;51.580;5.010;2023-07-30T21:07:39;3.90;;;1.50;;
24713;SDS011;12820;51.580;5.010;2023-07-30T21:12:41;4.25;;;1.70;;
24713;SDS011;12820;51.580;5.010;2023-07-30T21:17:44;5.20;;;1.90;;
24713;SDS011;12820;51.580;5.010;2023-07-30T21:22:46;3.90;;;1.73;;
24713;SDS011;12820;51.580;5.010;2023-07-30T21:27:48;7.45;;;2.70;;
24713;SDS011;12820;51.580;5.010;2023-07-30T21:32:50;7.90;;;4.20;;
24713;SDS011;12820;51.580;5.010;2023-07-30T21:37:53;9.18;;;4.25;;
24713;SDS011;12820;51.580;5.010;2023-07-30T21:42:55;13.20;;;6.25;;
24713;SDS011;12820;51.580;5.010;2023-07-30T21:47:57;18.00;;;6.68;;
24713;SDS011;12820;51.580;5.010;2023-07-30T21:52:59;10.55;;;4.75;;
24713;SDS011;12820;51.580;5.010;2023-07-30T21:58:01;18.73;;;7.07;;
24713;SDS011;12820;51.580;5.010;2023-07-30T22:03:03;19.05;;;6.47;;
24713;SDS011;12820;51.580;5.010;2023-07-30T22:08:06;19.67;;;6.65;;
24713;SDS011;12820;51.580;5.010;2023-07-30T22:13:11;21.58;;;6.80;;
24713;SDS011;12820;51.580;5.010;2023-07-30T22:18:15;23.60;;;6.82;;
24713;SDS011;12820;51.580;5.010;2023-07-30T22:23:17;18.95;;;6.15;;
24713;SDS011;12820;51.580;5.010;2023-07-30T22:28:19;21.08;;;6.03;;
24713;SDS011;12820;51.580;5.010;2023-07-30T22:33:21;16.85;;;6.18;;
24713;SDS011;12820;51.580;5.010;2023-07-30T22:38:24;15.95;;;5.97;;
24713;SDS011;12820;51.580;5.010;2023-07-30T22:43:26;18.98;;;6.68;;
24713;SDS011;12820;51.580;5.010;2023-07-30T22:48:28;21.52;;;7.68;;
24713;SDS011;12820;51.580;5.010;2023-07-30T22:53:30;30.17;;;8.15;;
24713;SDS011;12820;51.580;5.010;2023-07-30T22:58:33;25.58;;;7.90;;
24713;SDS011;12820;51.580;5.010;2023-07-30T23:03:36;27.60;;;7.63;;
24713;SDS011;12820;51.580;5.010;2023-07-30T23:08:38;33.85;;;9.05;;
24713;SDS011;12820;51.580;5.010;2023-07-30T23:13:42;35.60;;;10.05;;
24713;SDS011;12820;51.580;5.010;2023-07-30T23:18:44;37.30;;;10.52;;
24713;SDS011;12820;51.580;5.010;2023-07-30T23:23:46;29.83;;;9.32;;
24713;SDS011;12820;51.580;5.010;2023-07-30T23:28:48;34.78;;;10.32;;
24713;SDS011;12820;51.580;5.010;2023-07-30T23:33:51;38.53;;;11.23;;
24713;SDS011;12820;51.580;5.010;2023-07-30T23:38:53;32.30;;;8.50;;
24713;SDS011;12820;51.580;5.010;2023-07-30T23:43:55;33.15;;;9.43;;
24713;SDS011;12820;51.580;5.010;2023-07-30T23:48:57;25.80;;;8.52;;
24713;SDS011;12820;51.580;5.010;2023-07-30T23:53:59;26.40;;;8.25;;
24713;SDS011;12820;51.580;5.010;2023-07-30T23:59:02;35.22;;;8.13;;
